createdAt,value
2022-09-15T00:02:15.885Z,101442.09
2022-09-15T00:05:39.723Z,101443.19
2022-09-15T00:09:03.865Z,101430.63
2022-09-15T00:12:27.750Z,101422.00
2022-09-15T00:15:51.759Z,101411.91
2022-09-15T00:19:15.740Z,101402.41
2022-09-15T00:22:39.752Z,101386.69
2022-09-15T00:26:05.723Z,101382.50
2022-09-15T00:29:29.763Z,101380.63
2022-09-15T00:32:54.757Z,101377.56
2022-09-15T00:36:20.762Z,101368.28
2022-09-15T00:39:44.799Z,101365.38
2022-09-15T00:43:08.774Z,101358.97
2022-09-15T00:46:35.761Z,101366.47
2022-09-15T00:50:01.802Z,101359.72
2022-09-15T00:53:26.755Z,101347.81
2022-09-15T00:56:51.767Z,101340.50
2022-09-15T01:00:15.756Z,101341.97
2022-09-15T01:03:40.771Z,101339.69
2022-09-15T01:07:10.769Z,101325.09
2022-09-15T01:10:50.782Z,101322.06
2022-09-15T01:14:14.738Z,101318.25
2022-09-15T01:18:02.810Z,101315.16
2022-09-15T01:21:32.775Z,101304.78
2022-09-15T01:25:21.796Z,101295.47
2022-09-15T01:28:56.801Z,101285.34
2022-09-15T01:32:52.447Z,101282.34
2022-09-15T01:36:30.794Z,101275.75
2022-09-15T01:39:57.811Z,101277.81
2022-09-15T01:43:22.787Z,101269.06
2022-09-15T01:46:50.766Z,101253.13
2022-09-15T01:50:26.807Z,101266.75
2022-09-15T01:53:50.861Z,101264.56
2022-09-15T01:57:17.810Z,101270.06
2022-09-15T02:00:41.804Z,101268.50
2022-09-15T02:04:11.835Z,101247.06
2022-09-15T02:07:55.824Z,101256.66
2022-09-15T02:11:40.806Z,101257.44
2022-09-15T02:15:13.803Z,101261.66
2022-09-15T02:19:01.775Z,101257.16
2022-09-15T02:22:37.848Z,101265.78
2022-09-15T02:26:09.780Z,101250.88
2022-09-15T02:29:33.832Z,101247.34
2022-09-15T02:33:01.835Z,101236.47
2022-09-15T02:36:27.785Z,101241.31
2022-09-15T02:39:56.845Z,101235.31
2022-09-15T02:43:26.812Z,101233.72
2022-09-15T02:46:51.829Z,101226.06
2022-09-15T02:50:14.835Z,101209.19
2022-09-15T02:53:37.820Z,101205.97
2022-09-15T02:57:01.805Z,101206.97
2022-09-15T03:00:28.819Z,101209.41
2022-09-15T03:03:51.853Z,101206.94
2022-09-15T03:07:15.798Z,101198.88
2022-09-15T03:10:41.846Z,101203.38
2022-09-15T03:14:18.786Z,101198.13
2022-09-15T03:17:42.833Z,101189.81
2022-09-15T03:21:11.848Z,101189.38
2022-09-15T03:24:35.847Z,101184.34
2022-09-15T03:27:52.408Z,101195.81
2022-09-15T03:31:09.874Z,101192.09
2022-09-15T03:34:33.824Z,101194.50
2022-09-15T03:37:50.830Z,101202.44
2022-09-15T03:41:18.846Z,101192.50
2022-09-15T03:44:43.862Z,101193.19
2022-09-15T03:48:07.825Z,101184.66
2022-09-15T03:51:31.878Z,101185.56
2022-09-15T03:54:54.854Z,101191.56
2022-09-15T03:58:19.862Z,101181.47
2022-09-15T04:01:44.858Z,101189.38
2022-09-15T04:05:10.853Z,101190.53
2022-09-15T04:08:34.843Z,101176.09
2022-09-15T04:11:58.842Z,101174.31
2022-09-15T04:15:22.816Z,101188.06
2022-09-15T04:18:45.872Z,101189.72
2022-09-15T04:22:11.523Z,101186.16
2022-09-15T04:25:37.837Z,101184.56
2022-09-15T04:28:55.436Z,101190.56
2022-09-15T04:32:13.868Z,101193.63
2022-09-15T04:35:37.834Z,101189.97
2022-09-15T04:39:02.875Z,101202.34
2022-09-15T04:42:29.852Z,101204.97
2022-09-15T04:45:53.908Z,101207.31
2022-09-15T04:49:17.846Z,101201.34
2022-09-15T04:52:41.899Z,101207.81
2022-09-15T04:56:05.872Z,101206.06
2022-09-15T04:59:33.883Z,101205.06
2022-09-15T05:02:57.862Z,101204.72
2022-09-15T05:06:23.909Z,101203.56
2022-09-15T05:09:47.866Z,101196.75
2022-09-15T05:13:12.897Z,101200.16
2022-09-15T05:16:39.886Z,101192.59
2022-09-15T05:20:03.910Z,101199.09
2022-09-15T05:23:28.877Z,101195.09
2022-09-15T05:26:52.889Z,101204.94
2022-09-15T05:30:36.006Z,101206.75
2022-09-15T05:33:48.942Z,101207.38
2022-09-15T05:37:13.020Z,101213.78
2022-09-15T05:40:35.894Z,101215.31
2022-09-15T05:44:00.879Z,101224.56
2022-09-15T05:47:24.903Z,101219.06
2022-09-15T05:50:48.918Z,101227.41
2022-09-15T05:54:13.904Z,101217.94
2022-09-15T05:57:37.901Z,101223.91
2022-09-15T06:01:02.888Z,101220.03
2022-09-15T06:04:25.918Z,101224.16
2022-09-15T06:07:49.935Z,101228.63
2022-09-15T06:11:18.876Z,101229.81
2022-09-15T06:14:42.889Z,101223.81
2022-09-15T06:18:05.887Z,101223.69
2022-09-15T06:21:34.891Z,101228.72
2022-09-15T06:24:59.871Z,101233.63
2022-09-15T06:28:23.943Z,101231.28
2022-09-15T06:31:44.009Z,101226.91
2022-09-15T06:35:08.917Z,101224.34
2022-09-15T06:38:31.919Z,101223.03
2022-09-15T06:42:04.854Z,101225.41
2022-09-15T06:45:31.955Z,101217.97
2022-09-15T06:48:55.879Z,101220.44
2022-09-15T06:52:18.914Z,101212.72
2022-09-15T06:55:42.866Z,101226.47
2022-09-15T06:59:05.917Z,101223.28
2022-09-15T07:02:30.056Z,101229.13
2022-09-15T07:05:54.965Z,101227.28
2022-09-15T07:09:19.906Z,101226.16
2022-09-15T07:12:44.926Z,101224.53
2022-09-15T07:16:10.974Z,101226.00
2022-09-15T07:19:34.960Z,101223.69
2022-09-15T07:22:58.950Z,101228.84
2022-09-15T07:26:29.959Z,101233.91
2022-09-15T07:29:53.929Z,101242.81
2022-09-15T07:33:11.599Z,101245.16
2022-09-15T07:36:29.937Z,101228.31
2022-09-15T07:39:54.972Z,101241.28
2022-09-15T07:43:18.971Z,101242.56
2022-09-15T07:46:45.937Z,101239.88
2022-09-15T07:50:08.938Z,101237.59
2022-09-15T07:53:33.902Z,101252.56
2022-09-15T07:56:57.984Z,101253.44
2022-09-15T08:00:24.032Z,101249.19
2022-09-15T08:03:46.908Z,101251.22
2022-09-15T08:07:10.924Z,101256.97
2022-09-15T08:10:33.996Z,101252.84
2022-09-15T08:13:57.891Z,101250.34
2022-09-15T08:17:21.984Z,101261.38
2022-09-15T08:20:46.000Z,101265.97
2022-09-15T08:24:14.925Z,101267.28
2022-09-15T08:27:39.003Z,101267.31
2022-09-15T08:31:02.968Z,101270.66
2022-09-15T08:34:32.977Z,101271.16
2022-09-15T08:37:56.957Z,101272.00
2022-09-15T08:41:22.961Z,101273.72
2022-09-15T08:45:06.957Z,101277.47
2022-09-15T08:48:30.949Z,101278.91
2022-09-15T08:52:00.958Z,101277.88
2022-09-15T08:55:39.005Z,101278.97
2022-09-15T08:59:02.912Z,101280.19
2022-09-15T09:02:30.102Z,101279.78
2022-09-15T09:06:09.994Z,101285.16
2022-09-15T09:09:45.970Z,101285.34
2022-09-15T09:13:34.669Z,101288.25
2022-09-15T09:17:05.971Z,101294.44
2022-09-15T09:20:43.023Z,101289.47
2022-09-15T09:24:19.004Z,101296.72
2022-09-15T09:27:48.010Z,101294.84
2022-09-15T09:31:19.965Z,101297.34
2022-09-15T09:34:50.015Z,101300.63
2022-09-15T09:38:13.931Z,101304.75
2022-09-15T09:41:45.011Z,101306.00
2022-09-15T09:45:08.968Z,101300.44
2022-09-15T09:48:39.020Z,101310.53
2022-09-15T09:52:04.954Z,101314.38
2022-09-15T09:55:37.967Z,101314.44
2022-09-15T09:59:01.961Z,101312.97
2022-09-15T10:02:32.967Z,101314.03
2022-09-15T10:05:58.962Z,101317.72
2022-09-15T10:09:33.153Z,101304.13
2022-09-15T10:12:57.996Z,101310.03
2022-09-15T10:16:22.062Z,101308.66
2022-09-15T10:19:48.994Z,101308.44
2022-09-15T10:23:18.929Z,101301.88
2022-09-15T10:26:45.986Z,101312.50
2022-09-15T10:30:09.974Z,101304.69
2022-09-15T10:33:38.988Z,101304.53
2022-09-15T10:37:03.009Z,101301.63
2022-09-15T10:40:47.960Z,101303.66
2022-09-15T10:44:30.997Z,101310.91
2022-09-15T10:48:10.948Z,101305.56
2022-09-15T10:52:13.001Z,101305.75
2022-09-15T10:55:56.996Z,101303.53
2022-09-15T10:59:36.003Z,101294.41
2022-09-15T11:03:17.008Z,101304.91
2022-09-15T11:07:03.990Z,101300.97
2022-09-15T11:10:45.014Z,101303.41
2022-09-15T11:14:32.009Z,101301.38
2022-09-15T11:18:05.050Z,101291.53
2022-09-15T11:21:35.970Z,101292.19
2022-09-15T11:25:03.004Z,101300.44
2022-09-15T11:28:34.971Z,101304.31
2022-09-15T11:32:00.150Z,101293.63
2022-09-15T11:35:56.027Z,101303.31
2022-09-15T11:39:20.052Z,101298.75
2022-09-15T11:43:27.977Z,101290.06
2022-09-15T11:47:17.047Z,101294.59
2022-09-15T11:50:47.983Z,101294.44
2022-09-15T11:54:31.998Z,101291.34
2022-09-15T11:58:33.020Z,101296.50
2022-09-15T12:02:09.046Z,101292.78
2022-09-15T12:05:46.060Z,101297.25
2022-09-15T12:09:13.999Z,101293.94
2022-09-15T12:12:38.007Z,101287.97
2022-09-15T12:16:04.122Z,101295.75
2022-09-15T12:19:50.067Z,101284.84
2022-09-15T12:23:53.110Z,101283.84
2022-09-15T12:27:16.982Z,101280.66
2022-09-15T12:30:58.086Z,101286.78
2022-09-15T12:34:48.053Z,101290.91
2022-09-15T12:38:14.072Z,101286.34
2022-09-15T12:41:31.947Z,101288.56
2022-09-15T12:44:56.013Z,101279.25
2022-09-15T12:48:45.603Z,101287.88
2022-09-15T12:52:12.984Z,101289.63
2022-09-15T12:55:40.035Z,101281.41
2022-09-15T12:59:06.527Z,101287.78
2022-09-15T13:03:07.035Z,101276.47
2022-09-15T13:06:46.062Z,101278.38
2022-09-15T13:10:27.008Z,101278.88
2022-09-15T13:13:58.048Z,101287.41
2022-09-15T13:17:24.073Z,101288.41
2022-09-15T13:20:50.053Z,101290.19
2022-09-15T13:24:15.077Z,101289.22
2022-09-15T13:27:49.060Z,101297.13
2022-09-15T13:31:26.045Z,101298.25
2022-09-15T13:35:20.890Z,101301.44
2022-09-15T13:38:54.030Z,101301.50
2022-09-15T13:42:28.886Z,101300.34
2022-09-15T13:46:22.227Z,101298.75
2022-09-15T13:50:06.172Z,101291.03
2022-09-15T13:53:42.118Z,101288.84
2022-09-15T13:57:06.096Z,101275.63
2022-09-15T14:00:35.054Z,101277.13
2022-09-15T14:04:05.056Z,101274.66
2022-09-15T14:07:37.056Z,101274.44
2022-09-15T14:11:08.053Z,101258.19
2022-09-15T14:14:50.068Z,101259.81
2022-09-15T14:18:14.091Z,101253.19
2022-09-15T14:21:48.073Z,101257.88
2022-09-15T14:25:13.108Z,101247.34
2022-09-15T14:28:42.025Z,101233.63
2022-09-15T14:32:06.143Z,101234.13
2022-09-15T14:35:44.024Z,101226.09
2022-09-15T14:39:33.058Z,101223.34
2022-09-15T14:42:57.079Z,101215.09
2022-09-15T14:46:31.116Z,101225.88
2022-09-15T14:49:55.016Z,101228.06
2022-09-15T14:53:38.120Z,101232.19
2022-09-15T14:57:04.071Z,101228.94
2022-09-15T15:00:34.174Z,101234.69
2022-09-15T15:04:26.121Z,101230.53
2022-09-15T15:07:52.038Z,101226.00
2022-09-15T15:11:16.142Z,101223.91
2022-09-15T15:14:41.044Z,101222.88
2022-09-15T15:18:07.126Z,101235.56
2022-09-15T15:21:57.035Z,101240.34
2022-09-15T15:25:42.120Z,101232.59
2022-09-15T15:29:06.043Z,101229.09
2022-09-15T15:32:37.072Z,101221.88
2022-09-15T15:36:01.114Z,101219.97
2022-09-15T15:39:38.095Z,101230.00
2022-09-15T15:43:19.106Z,101234.50
2022-09-15T15:47:04.126Z,101222.63
2022-09-15T15:50:33.064Z,101231.72
2022-09-15T15:53:57.121Z,101240.69
2022-09-15T15:57:42.100Z,101233.72
2022-09-15T16:01:11.164Z,101231.19
2022-09-15T16:04:36.107Z,101225.78
2022-09-15T16:08:01.113Z,101219.56
2022-09-15T16:11:29.102Z,101224.06
2022-09-15T16:14:53.128Z,101228.81
2022-09-15T16:18:17.085Z,101231.94
2022-09-15T16:21:57.077Z,101229.75
2022-09-15T16:25:30.067Z,101234.97
2022-09-15T16:28:48.131Z,101239.19
2022-09-15T16:32:12.067Z,101252.44
2022-09-15T16:35:57.108Z,101246.28
2022-09-15T16:39:21.073Z,101248.56
2022-09-15T16:42:45.103Z,101251.03
2022-09-15T16:46:03.195Z,101255.81
2022-09-15T16:49:20.148Z,101253.59
2022-09-15T16:52:44.066Z,101255.47
2022-09-15T16:56:09.115Z,101262.66
2022-09-15T16:59:33.060Z,101259.78
2022-09-15T17:02:57.095Z,101269.50
2022-09-15T17:06:21.117Z,101266.84
2022-09-15T17:09:45.155Z,101274.22
2022-09-15T17:13:09.107Z,101278.16
2022-09-15T17:16:34.110Z,101281.25
2022-09-15T17:19:58.073Z,101278.78
2022-09-15T17:23:39.156Z,101275.09
2022-09-15T17:27:03.067Z,101272.81
2022-09-15T17:30:28.105Z,101274.25
2022-09-15T17:33:53.146Z,101276.09
2022-09-15T17:37:17.144Z,101279.97
2022-09-15T17:40:41.165Z,101280.16
2022-09-15T17:44:06.074Z,101287.94
2022-09-15T17:47:30.134Z,101294.31
2022-09-15T17:50:56.127Z,101292.97
2022-09-15T17:54:20.178Z,101298.28
2022-09-15T17:57:45.128Z,101293.53
2022-09-15T18:01:03.134Z,101299.84
2022-09-15T18:04:27.086Z,101305.75
2022-09-15T18:07:51.136Z,101304.34
2022-09-15T18:11:16.143Z,101306.72
2022-09-15T18:14:41.169Z,101310.97
2022-09-15T18:18:12.076Z,101317.84
2022-09-15T18:21:40.167Z,101310.91
2022-09-15T18:25:05.132Z,101312.50
2022-09-15T18:28:28.179Z,101310.75
2022-09-15T18:31:53.081Z,101319.84
2022-09-15T18:35:18.642Z,101344.16
2022-09-15T18:38:44.137Z,101336.75
2022-09-15T18:42:01.175Z,101335.56
2022-09-15T18:45:27.102Z,101348.34
2022-09-15T18:48:51.135Z,101340.22
2022-09-15T18:52:15.113Z,101354.00
2022-09-15T18:55:39.128Z,101357.72
2022-09-15T18:59:03.171Z,101364.94
2022-09-15T19:02:27.311Z,101371.16
2022-09-15T19:05:50.166Z,101372.38
2022-09-15T19:09:14.177Z,101383.31
2022-09-15T19:12:38.129Z,101397.13
2022-09-15T19:16:02.203Z,101402.88
2022-09-15T19:19:26.162Z,101403.69
2022-09-15T19:22:50.178Z,101412.34
2022-09-15T19:26:25.155Z,101414.78
2022-09-15T19:29:52.186Z,101417.66
2022-09-15T19:33:19.123Z,101417.00
2022-09-15T19:36:43.141Z,101413.84
2022-09-15T19:40:06.217Z,101422.66
2022-09-15T19:43:30.111Z,101424.22
2022-09-15T19:46:54.190Z,101430.09
2022-09-15T19:50:20.157Z,101430.50
2022-09-15T19:53:36.214Z,101426.16
2022-09-15T19:57:00.155Z,101426.59
2022-09-15T20:00:26.197Z,101429.31
2022-09-15T20:03:50.144Z,101437.28
2022-09-15T20:07:15.216Z,101437.50
2022-09-15T20:10:39.189Z,101436.03
2022-09-15T20:14:03.152Z,101433.47
2022-09-15T20:17:28.201Z,101439.53
2022-09-15T20:20:55.207Z,101446.28
2022-09-15T20:24:18.216Z,101444.19
2022-09-15T20:27:42.147Z,101449.72
2022-09-15T20:31:14.208Z,101456.28
2022-09-15T20:34:38.178Z,101461.41
2022-09-15T20:38:02.181Z,101456.28
2022-09-15T20:41:27.188Z,101454.94
2022-09-15T20:44:50.171Z,101450.47
2022-09-15T20:48:07.776Z,101456.09
2022-09-15T20:51:31.216Z,101452.91
2022-09-15T20:54:55.211Z,101455.69
2022-09-15T20:58:21.155Z,101456.75
2022-09-15T21:01:51.380Z,101468.19
2022-09-15T21:05:14.149Z,101465.22
2022-09-15T21:08:38.182Z,101467.69
2022-09-15T21:12:03.192Z,101457.91
2022-09-15T21:15:28.176Z,101465.44
2022-09-15T21:18:54.223Z,101472.25
2022-09-15T21:22:19.238Z,101472.19
2022-09-15T21:25:43.229Z,101478.38
2022-09-15T21:29:06.213Z,101477.97
2022-09-15T21:32:30.183Z,101472.53
2022-09-15T21:35:57.179Z,101479.38
2022-09-15T21:39:21.232Z,101478.66
2022-09-15T21:42:45.210Z,101471.31
2022-09-15T21:46:13.226Z,101479.16
2022-09-15T21:49:30.761Z,101464.00
2022-09-15T21:52:48.194Z,101466.97
2022-09-15T21:56:20.225Z,101467.59
2022-09-15T21:59:44.238Z,101461.53
2022-09-15T22:03:07.176Z,101461.47
2022-09-15T22:06:35.243Z,101457.03
2022-09-15T22:09:59.224Z,101459.03
2022-09-15T22:13:25.202Z,101463.66
2022-09-15T22:16:53.293Z,101469.13
2022-09-15T22:20:17.204Z,101469.69
2022-09-15T22:23:42.226Z,101471.09
2022-09-15T22:27:06.268Z,101468.63
2022-09-15T22:30:30.232Z,101469.69
2022-09-15T22:33:54.238Z,101465.41
2022-09-15T22:37:18.207Z,101469.13
2022-09-15T22:40:41.252Z,101458.00
2022-09-15T22:44:05.201Z,101445.78
2022-09-15T22:47:29.232Z,101439.97
2022-09-15T22:50:54.212Z,101440.78
2022-09-15T22:54:18.211Z,101445.91
2022-09-15T22:57:45.270Z,101444.41
2022-09-15T23:01:08.271Z,101452.06
2022-09-15T23:04:32.244Z,101449.59
2022-09-15T23:07:55.241Z,101441.72
2022-09-15T23:11:21.267Z,101446.28
2022-09-15T23:14:45.233Z,101450.91
2022-09-15T23:18:09.268Z,101466.53
2022-09-15T23:21:34.283Z,101460.94
2022-09-15T23:24:58.194Z,101473.88
2022-09-15T23:28:22.278Z,101476.59
2022-09-15T23:31:47.253Z,101475.66
2022-09-15T23:35:11.288Z,101469.03
2022-09-15T23:38:36.233Z,101468.44
2022-09-15T23:42:00.286Z,101463.72
2022-09-15T23:45:24.424Z,101471.41
2022-09-15T23:48:48.257Z,101460.72
2022-09-15T23:52:12.303Z,101459.88
2022-09-15T23:55:36.246Z,101458.81
2022-09-15T23:59:00.300Z,101452.00
